sensor_id;sensor_type;location;lat;lon;timestamp;temperature;humidity
38973;DHT22;25333;50.762;4.470;2022-12-26T00:01:28;11.10;99.90
38973;DHT22;25333;50.762;4.470;2022-12-26T00:03:55;11.10;99.90
38973;DHT22;25333;50.762;4.470;2022-12-26T00:06:24;11.00;99.90
38973;DHT22;25333;50.762;4.470;2022-12-26T00:08:50;11.00;99.90
38973;DHT22;25333;50.762;4.470;2022-12-26T00:11:17;10.90;99.90
38973;DHT22;25333;50.762;4.470;2022-12-26T00:13:43;10.90;99.90
38973;DHT22;25333;50.762;4.470;2022-12-26T00:16:10;10.90;99.90
38973;DHT22;25333;50.762;4.470;2022-12-26T00:18:37;10.80;99.90
38973;DHT22;25333;50.762;4.470;2022-12-26T00:21:02;10.80;99.90
38973;DHT22;25333;50.762;4.470;2022-12-26T00:23:30;10.80;99.90
38973;DHT22;25333;50.762;4.470;2022-12-26T00:26:04;10.70;99.90
38973;DHT22;25333;50.762;4.470;2022-12-26T00:28:31;10.60;99.90
38973;DHT22;25333;50.762;4.470;2022-12-26T00:30:56;10.60;99.90
38973;DHT22;25333;50.762;4.470;2022-12-26T00:33:22;10.60;99.90
38973;DHT22;25333;50.762;4.470;2022-12-26T00:35:47;10.50;99.90
38973;DHT22;25333;50.762;4.470;2022-12-26T00:38:13;10.50;99.90
38973;DHT22;25333;50.762;4.470;2022-12-26T00:40:40;10.50;99.90
38973;DHT22;25333;50.762;4.470;2022-12-26T00:43:08;10.50;99.90
38973;DHT22;25333;50.762;4.470;2022-12-26T00:45:34;10.50;99.90
38973;DHT22;25333;50.762;4.470;2022-12-26T00:48:00;10.50;99.90
38973;DHT22;25333;50.762;4.470;2022-12-26T00:50:26;10.50;99.90
38973;DHT22;25333;50.762;4.470;2022-12-26T00:52:52;10.50;99.90
38973;DHT22;25333;50.762;4.470;2022-12-26T00:55:17;10.50;99.90
38973;DHT22;25333;50.762;4.470;2022-12-26T00:57:43;10.50;99.90
38973;DHT22;25333;50.762;4.470;2022-12-26T01:00:09;10.50;99.90
38973;DHT22;25333;50.762;4.470;2022-12-26T01:02:35;10.40;99.90
38973;DHT22;25333;50.762;4.470;2022-12-26T01:05:05;10.40;99.90
38973;DHT22;25333;50.762;4.470;2022-12-26T01:07:38;10.40;99.90
38973;DHT22;25333;50.762;4.470;2022-12-26T01:10:05;10.40;99.90
38973;DHT22;25333;50.762;4.470;2022-12-26T01:12:31;10.30;99.90
38973;DHT22;25333;50.762;4.470;2022-12-26T01:14:58;10.30;99.90
38973;DHT22;25333;50.762;4.470;2022-12-26T01:17:24;10.30;99.90
38973;DHT22;25333;50.762;4.470;2022-12-26T01:19:51;10.30;99.90
38973;DHT22;25333;50.762;4.470;2022-12-26T01:22:16;10.20;99.90
38973;DHT22;25333;50.762;4.470;2022-12-26T01:24:42;10.20;99.90
38973;DHT22;25333;50.762;4.470;2022-12-26T01:27:08;10.10;99.90
38973;DHT22;25333;50.762;4.470;2022-12-26T01:29:33;10.20;99.90
38973;DHT22;25333;50.762;4.470;2022-12-26T01:31:59;10.10;99.90
38973;DHT22;25333;50.762;4.470;2022-12-26T01:34:25;10.20;99.90
38973;DHT22;25333;50.762;4.470;2022-12-26T01:36:51;10.10;99.90
38973;DHT22;25333;50.762;4.470;2022-12-26T01:39:17;10.10;99.90
38973;DHT22;25333;50.762;4.470;2022-12-26T01:41:43;10.10;99.90
38973;DHT22;25333;50.762;4.470;2022-12-26T01:47:12;10.10;99.90
38973;DHT22;25333;50.762;4.470;2022-12-26T01:49:43;10.10;99.90
38973;DHT22;25333;50.762;4.470;2022-12-26T01:52:37;10.10;99.90
38973;DHT22;25333;50.762;4.470;2022-12-26T01:55:07;10.10;99.90
38973;DHT22;25333;50.762;4.470;2022-12-26T01:57:40;10.10;99.90
38973;DHT22;25333;50.762;4.470;2022-12-26T02:00:06;10.00;99.90
38973;DHT22;25333;50.762;4.470;2022-12-26T02:02:32;10.00;99.90
38973;DHT22;25333;50.762;4.470;2022-12-26T02:05:23;10.00;99.90
38973;DHT22;25333;50.762;4.470;2022-12-26T02:08:00;9.90;99.90
38973;DHT22;25333;50.762;4.470;2022-12-26T02:10:32;9.90;99.90
38973;DHT22;25333;50.762;4.470;2022-12-26T02:12:58;9.90;99.90
38973;DHT22;25333;50.762;4.470;2022-12-26T02:15:24;9.90;99.90
38973;DHT22;25333;50.762;4.470;2022-12-26T02:17:50;9.90;99.90
38973;DHT22;25333;50.762;4.470;2022-12-26T02:34:22;9.80;99.90
38973;DHT22;25333;50.762;4.470;2022-12-26T02:45:14;9.80;99.90
38973;DHT22;25333;50.762;4.470;2022-12-26T02:48:19;9.80;99.90
38973;DHT22;25333;50.762;4.470;2022-12-26T02:50:51;9.80;99.90
38973;DHT22;25333;50.762;4.470;2022-12-26T02:56:55;9.70;99.90
38973;DHT22;25333;50.762;4.470;2022-12-26T02:59:57;9.70;99.90
38973;DHT22;25333;50.762;4.470;2022-12-26T03:02:58;9.80;99.90
38973;DHT22;25333;50.762;4.470;2022-12-26T03:05:57;9.70;99.90
38973;DHT22;25333;50.762;4.470;2022-12-26T03:08:50;9.80;99.90
38973;DHT22;25333;50.762;4.470;2022-12-26T03:11:44;9.70;99.90
38973;DHT22;25333;50.762;4.470;2022-12-26T03:15:00;9.80;99.90
38973;DHT22;25333;50.762;4.470;2022-12-26T03:17:34;9.80;99.90
38973;DHT22;25333;50.762;4.470;2022-12-26T03:28:18;9.80;99.90
38973;DHT22;25333;50.762;4.470;2022-12-26T03:30:43;9.80;99.90
38973;DHT22;25333;50.762;4.470;2022-12-26T03:33:26;9.80;99.90
38973;DHT22;25333;50.762;4.470;2022-12-26T03:36:13;9.80;99.90
38973;DHT22;25333;50.762;4.470;2022-12-26T03:44:47;9.80;99.90
38973;DHT22;25333;50.762;4.470;2022-12-26T03:47:52;9.80;99.90
38973;DHT22;25333;50.762;4.470;2022-12-26T03:50:42;9.80;99.90
38973;DHT22;25333;50.762;4.470;2022-12-26T03:53:34;9.80;99.90
38973;DHT22;25333;50.762;4.470;2022-12-26T03:56:29;9.90;99.90
38973;DHT22;25333;50.762;4.470;2022-12-26T03:59:23;9.80;99.90
38973;DHT22;25333;50.762;4.470;2022-12-26T04:02:10;9.80;99.90
38973;DHT22;25333;50.762;4.470;2022-12-26T04:04:56;9.80;99.90
38973;DHT22;25333;50.762;4.470;2022-12-26T04:07:48;9.80;99.90
38973;DHT22;25333;50.762;4.470;2022-12-26T04:10:37;9.80;99.90
38973;DHT22;25333;50.762;4.470;2022-12-26T04:13:34;9.90;99.90
38973;DHT22;25333;50.762;4.470;2022-12-26T04:16:33;9.90;99.90
38973;DHT22;25333;50.762;4.470;2022-12-26T04:22:16;9.90;99.90
38973;DHT22;25333;50.762;4.470;2022-12-26T04:25:17;9.90;99.90
38973;DHT22;25333;50.762;4.470;2022-12-26T04:28:03;9.90;99.90
38973;DHT22;25333;50.762;4.470;2022-12-26T04:30:52;9.90;99.90
38973;DHT22;25333;50.762;4.470;2022-12-26T04:33:47;9.90;99.90
38973;DHT22;25333;50.762;4.470;2022-12-26T04:36:42;9.90;99.90
38973;DHT22;25333;50.762;4.470;2022-12-26T04:39:31;9.90;99.90
38973;DHT22;25333;50.762;4.470;2022-12-26T04:42:18;9.90;99.90
38973;DHT22;25333;50.762;4.470;2022-12-26T04:45:05;9.90;99.90
38973;DHT22;25333;50.762;4.470;2022-12-26T04:47:32;9.90;99.90
38973;DHT22;25333;50.762;4.470;2022-12-26T04:49:57;9.90;99.90
38973;DHT22;25333;50.762;4.470;2022-12-26T04:52:40;9.90;99.90
38973;DHT22;25333;50.762;4.470;2022-12-26T04:55:29;9.90;99.90
38973;DHT22;25333;50.762;4.470;2022-12-26T04:57:56;9.90;99.90
38973;DHT22;25333;50.762;4.470;2022-12-26T05:00:23;9.90;99.90
38973;DHT22;25333;50.762;4.470;2022-12-26T05:02:50;9.90;99.90
38973;DHT22;25333;50.762;4.470;2022-12-26T05:05:40;9.90;99.90
38973;DHT22;25333;50.762;4.470;2022-12-26T05:08:29;9.90;99.90
38973;DHT22;25333;50.762;4.470;2022-12-26T05:11:15;9.80;99.90
38973;DHT22;25333;50.762;4.470;2022-12-26T05:13:41;9.80;99.90
38973;DHT22;25333;50.762;4.470;2022-12-26T05:16:07;9.80;99.90
38973;DHT22;25333;50.762;4.470;2022-12-26T05:18:52;9.80;99.90
38973;DHT22;25333;50.762;4.470;2022-12-26T05:21:36;9.80;99.90
38973;DHT22;25333;50.762;4.470;2022-12-26T05:24:21;9.80;99.90
38973;DHT22;25333;50.762;4.470;2022-12-26T05:27:12;9.80;99.90
38973;DHT22;25333;50.762;4.470;2022-12-26T05:29:58;9.80;99.90
38973;DHT22;25333;50.762;4.470;2022-12-26T05:32:24;9.80;99.90
38973;DHT22;25333;50.762;4.470;2022-12-26T05:35:08;9.80;99.90
38973;DHT22;25333;50.762;4.470;2022-12-26T05:37:34;9.80;99.90
38973;DHT22;25333;50.762;4.470;2022-12-26T05:40:00;9.70;99.90
38973;DHT22;25333;50.762;4.470;2022-12-26T05:42:25;9.80;99.90
38973;DHT22;25333;50.762;4.470;2022-12-26T05:44:51;9.80;99.90
38973;DHT22;25333;50.762;4.470;2022-12-26T05:47:17;9.80;99.90
38973;DHT22;25333;50.762;4.470;2022-12-26T05:49:42;9.80;99.90
38973;DHT22;25333;50.762;4.470;2022-12-26T05:52:08;9.80;99.90
38973;DHT22;25333;50.762;4.470;2022-12-26T05:54:33;9.90;99.90
38973;DHT22;25333;50.762;4.470;2022-12-26T05:56:59;9.90;99.90
38973;DHT22;25333;50.762;4.470;2022-12-26T05:59:26;9.90;99.90
38973;DHT22;25333;50.762;4.470;2022-12-26T06:01:52;9.90;99.90
38973;DHT22;25333;50.762;4.470;2022-12-26T06:04:17;9.90;99.90
38973;DHT22;25333;50.762;4.470;2022-12-26T06:06:43;9.90;99.90
38973;DHT22;25333;50.762;4.470;2022-12-26T06:09:09;9.90;99.90
38973;DHT22;25333;50.762;4.470;2022-12-26T06:11:34;9.90;99.90
38973;DHT22;25333;50.762;4.470;2022-12-26T06:14:00;9.80;99.90
38973;DHT22;25333;50.762;4.470;2022-12-26T06:16:26;9.80;99.90
38973;DHT22;25333;50.762;4.470;2022-12-26T06:18:53;9.80;99.90
38973;DHT22;25333;50.762;4.470;2022-12-26T06:21:19;9.70;99.90
38973;DHT22;25333;50.762;4.470;2022-12-26T06:23:46;9.70;99.90
38973;DHT22;25333;50.762;4.470;2022-12-26T06:26:12;9.70;99.90
38973;DHT22;25333;50.762;4.470;2022-12-26T06:28:39;9.70;99.90
38973;DHT22;25333;50.762;4.470;2022-12-26T06:31:09;9.60;99.90
38973;DHT22;25333;50.762;4.470;2022-12-26T06:33:35;9.60;99.90
38973;DHT22;25333;50.762;4.470;2022-12-26T06:36:10;9.60;99.90
38973;DHT22;25333;50.762;4.470;2022-12-26T06:38:36;9.60;99.90
38973;DHT22;25333;50.762;4.470;2022-12-26T06:41:06;9.50;99.90
38973;DHT22;25333;50.762;4.470;2022-12-26T06:43:32;9.50;99.90
38973;DHT22;25333;50.762;4.470;2022-12-26T06:45:59;9.50;99.90
38973;DHT22;25333;50.762;4.470;2022-12-26T06:48:25;9.50;99.90
38973;DHT22;25333;50.762;4.470;2022-12-26T06:50:51;9.50;99.90
38973;DHT22;25333;50.762;4.470;2022-12-26T06:53:19;9.50;99.90
38973;DHT22;25333;50.762;4.470;2022-12-26T06:55:45;9.50;99.90
38973;DHT22;25333;50.762;4.470;2022-12-26T06:58:11;9.50;99.90
38973;DHT22;25333;50.762;4.470;2022-12-26T07:00:36;9.50;99.90
38973;DHT22;25333;50.762;4.470;2022-12-26T07:03:03;9.50;99.90
38973;DHT22;25333;50.762;4.470;2022-12-26T07:05:29;9.50;99.90
38973;DHT22;25333;50.762;4.470;2022-12-26T07:07:55;9.60;99.90
38973;DHT22;25333;50.762;4.470;2022-12-26T07:10:21;9.60;99.90
38973;DHT22;25333;50.762;4.470;2022-12-26T07:12:47;9.60;99.90
38973;DHT22;25333;50.762;4.470;2022-12-26T07:15:13;9.60;99.90
38973;DHT22;25333;50.762;4.470;2022-12-26T07:17:39;9.70;99.90
38973;DHT22;25333;50.762;4.470;2022-12-26T07:20:06;9.70;99.90
38973;DHT22;25333;50.762;4.470;2022-12-26T07:22:34;9.70;99.90
38973;DHT22;25333;50.762;4.470;2022-12-26T07:25:15;9.70;99.90
38973;DHT22;25333;50.762;4.470;2022-12-26T08:46:11;9.80;99.90
38973;DHT22;25333;50.762;4.470;2022-12-26T09:00:18;9.90;99.90
38973;DHT22;25333;50.762;4.470;2022-12-26T09:05:21;9.90;99.90
38973;DHT22;25333;50.762;4.470;2022-12-26T09:07:55;9.90;99.90
38973;DHT22;25333;50.762;4.470;2022-12-26T09:20:37;10.00;99.90
38973;DHT22;25333;50.762;4.470;2022-12-26T09:23:34;10.00;99.90
38973;DHT22;25333;50.762;4.470;2022-12-26T09:29:27;9.90;99.90
38973;DHT22;25333;50.762;4.470;2022-12-26T09:56:27;10.40;99.90
38973;DHT22;25333;50.762;4.470;2022-12-26T11:00:43;9.50;99.90
38973;DHT22;25333;50.762;4.470;2022-12-26T11:03:14;9.40;99.90
38973;DHT22;25333;50.762;4.470;2022-12-26T11:06:21;9.40;99.90
38973;DHT22;25333;50.762;4.470;2022-12-26T11:08:55;9.40;99.90
38973;DHT22;25333;50.762;4.470;2022-12-26T11:11:25;9.40;99.90
38973;DHT22;25333;50.762;4.470;2022-12-26T11:14:37;9.40;99.90
38973;DHT22;25333;50.762;4.470;2022-12-26T11:17:12;9.40;99.90
38973;DHT22;25333;50.762;4.470;2022-12-26T11:26:19;9.50;99.90
38973;DHT22;25333;50.762;4.470;2022-12-26T11:32:03;9.50;99.90
38973;DHT22;25333;50.762;4.470;2022-12-26T11:34:48;9.40;99.90
38973;DHT22;25333;50.762;4.470;2022-12-26T11:37:39;9.40;99.90
38973;DHT22;25333;50.762;4.470;2022-12-26T11:40:20;9.30;99.90
38973;DHT22;25333;50.762;4.470;2022-12-26T11:42:55;9.10;99.90
38973;DHT22;25333;50.762;4.470;2022-12-26T11:45:27;8.90;99.90
38973;DHT22;25333;50.762;4.470;2022-12-26T11:47:59;8.90;99.90
38973;DHT22;25333;50.762;4.470;2022-12-26T11:50:28;8.80;99.90
38973;DHT22;25333;50.762;4.470;2022-12-26T11:53:04;8.90;99.90
38973;DHT22;25333;50.762;4.470;2022-12-26T11:55:34;8.90;99.90
38973;DHT22;25333;50.762;4.470;2022-12-26T11:58:30;8.70;99.90
38973;DHT22;25333;50.762;4.470;2022-12-26T12:03:45;8.50;99.90
38973;DHT22;25333;50.762;4.470;2022-12-26T12:06:34;8.60;99.90
38973;DHT22;25333;50.762;4.470;2022-12-26T12:15:02;8.50;99.90
38973;DHT22;25333;50.762;4.470;2022-12-26T12:17:54;8.40;99.90
38973;DHT22;25333;50.762;4.470;2022-12-26T12:21:06;8.40;99.90
38973;DHT22;25333;50.762;4.470;2022-12-26T12:27:04;8.40;99.90
38973;DHT22;25333;50.762;4.470;2022-12-26T12:29:40;8.40;99.90
38973;DHT22;25333;50.762;4.470;2022-12-26T12:32:21;8.30;99.90
38973;DHT22;25333;50.762;4.470;2022-12-26T12:38:09;8.40;99.90
38973;DHT22;25333;50.762;4.470;2022-12-26T12:40:45;8.60;99.90
38973;DHT22;25333;50.762;4.470;2022-12-26T12:46:14;8.60;99.90
38973;DHT22;25333;50.762;4.470;2022-12-26T12:58:04;8.60;99.90
38973;DHT22;25333;50.762;4.470;2022-12-26T13:00:43;8.60;99.90
38973;DHT22;25333;50.762;4.470;2022-12-26T13:11:32;8.60;99.90
38973;DHT22;25333;50.762;4.470;2022-12-26T13:14:19;8.60;99.90
38973;DHT22;25333;50.762;4.470;2022-12-26T13:20:14;8.40;99.90
38973;DHT22;25333;50.762;4.470;2022-12-26T13:22:44;8.20;99.90
38973;DHT22;25333;50.762;4.470;2022-12-26T13:25:45;8.20;99.90
38973;DHT22;25333;50.762;4.470;2022-12-26T13:28:23;8.30;99.90
38973;DHT22;25333;50.762;4.470;2022-12-26T13:30:59;8.20;99.90
38973;DHT22;25333;50.762;4.470;2022-12-26T13:33:25;8.20;99.90
38973;DHT22;25333;50.762;4.470;2022-12-26T13:36:00;8.10;99.90
38973;DHT22;25333;50.762;4.470;2022-12-26T13:41:20;8.10;99.90
38973;DHT22;25333;50.762;4.470;2022-12-26T13:44:24;8.00;99.90
38973;DHT22;25333;50.762;4.470;2022-12-26T13:46:56;8.20;99.90
38973;DHT22;25333;50.762;4.470;2022-12-26T13:52:22;8.10;99.90
38973;DHT22;25333;50.762;4.470;2022-12-26T13:57:42;8.00;99.90
38973;DHT22;25333;50.762;4.470;2022-12-26T14:00:57;7.80;99.90
38973;DHT22;25333;50.762;4.470;2022-12-26T14:03:35;7.60;99.90
38973;DHT22;25333;50.762;4.470;2022-12-26T14:17:33;7.50;99.90
38973;DHT22;25333;50.762;4.470;2022-12-26T14:20:10;7.60;99.90
38973;DHT22;25333;50.762;4.470;2022-12-26T14:25:25;7.30;99.90
38973;DHT22;25333;50.762;4.470;2022-12-26T14:28:21;7.20;99.90
38973;DHT22;25333;50.762;4.470;2022-12-26T14:31:29;7.30;99.90
38973;DHT22;25333;50.762;4.470;2022-12-26T14:37:22;7.20;99.90
38973;DHT22;25333;50.762;4.470;2022-12-26T14:51:54;7.00;99.90
38973;DHT22;25333;50.762;4.470;2022-12-26T15:47:36;6.20;99.90
38973;DHT22;25333;50.762;4.470;2022-12-26T16:11:57;5.50;99.90
38973;DHT22;25333;50.762;4.470;2022-12-26T16:14:44;5.50;99.90
38973;DHT22;25333;50.762;4.470;2022-12-26T16:20:28;5.40;99.90
38973;DHT22;25333;50.762;4.470;2022-12-26T16:23:36;5.30;99.90
38973;DHT22;25333;50.762;4.470;2022-12-26T16:27:07;5.20;99.90
38973;DHT22;25333;50.762;4.470;2022-12-26T16:29:56;5.10;99.90
38973;DHT22;25333;50.762;4.470;2022-12-26T16:36:22;5.10;99.90
38973;DHT22;25333;50.762;4.470;2022-12-26T16:39:40;5.00;99.90
38973;DHT22;25333;50.762;4.470;2022-12-26T16:42:28;5.00;99.90
38973;DHT22;25333;50.762;4.470;2022-12-26T16:47:51;4.80;99.90
38973;DHT22;25333;50.762;4.470;2022-12-26T17:01:12;4.50;99.90
38973;DHT22;25333;50.762;4.470;2022-12-26T17:11:15;4.40;99.90
38973;DHT22;25333;50.762;4.470;2022-12-26T17:19:49;4.20;99.90
38973;DHT22;25333;50.762;4.470;2022-12-26T17:25:40;4.10;99.90
38973;DHT22;25333;50.762;4.470;2022-12-26T17:33:26;4.10;99.90
38973;DHT22;25333;50.762;4.470;2022-12-26T17:36:02;4.10;99.90
38973;DHT22;25333;50.762;4.470;2022-12-26T17:48:21;4.00;99.90
38973;DHT22;25333;50.762;4.470;2022-12-26T17:56:44;3.90;99.90
38973;DHT22;25333;50.762;4.470;2022-12-26T18:03:24;4.00;99.90
38973;DHT22;25333;50.762;4.470;2022-12-26T18:36:33;4.00;99.90
38973;DHT22;25333;50.762;4.470;2022-12-26T18:43:06;4.00;99.90
38973;DHT22;25333;50.762;4.470;2022-12-26T18:46:32;4.00;99.90
38973;DHT22;25333;50.762;4.470;2022-12-26T19:03:24;4.10;99.90
38973;DHT22;25333;50.762;4.470;2022-12-26T19:05:56;4.10;99.90
38973;DHT22;25333;50.762;4.470;2022-12-26T19:08:56;4.00;99.90
38973;DHT22;25333;50.762;4.470;2022-12-26T19:11:25;4.00;99.90
38973;DHT22;25333;50.762;4.470;2022-12-26T20:31:34;4.30;99.90
